Time;durP1;ratioP1;P1;durP2;ratioP2;P2;SDS_P1;SDS_P2;PMS_P1;PMS_P2;Temp;Humidity;BMP_temperature;BMP_pressure;BME280_temperature;BME280_humidity;BME280_pressure;Samples;Min_cycle;Max_cycle;Signal;HPM_P1;HPM_P2
2023/03/31 00:00:53;;;;;;;;;20.00;17.50;;;;;15.56;51.75;97970.72;6090597;28;96551;-63
2023/03/31 00:04:03;;;;;;;;;15.00;13.00;;;;;15.56;51.57;97973.44;6073370;28;96773;-64
2023/03/31 00:07:07;;;;;;;;;17.00;15.80;;;;;15.46;52.11;97976.13;6072228;28;97468;-64
2023/03/31 00:10:10;;;;;;;;;15.00;14.00;;;;;15.46;52.11;97968.00;6090581;28;96464;-64
2023/03/31 00:13:22;;;;;;;;;14.80;14.00;;;;;15.38;52.35;97975.91;6072899;28;96743;-64
2023/03/31 00:16:25;;;;;;;;;15.00;13.60;;;;;15.32;52.59;97974.28;6080612;28;96553;-62
2023/03/31 00:19:31;;;;;;;;;15.75;14.75;;;;;15.31;52.61;97973.44;6074905;28;96828;-62
2023/03/31 00:22:37;;;;;;;;;18.00;17.00;;;;;15.28;53.07;97979.44;6060845;28;96686;-62
2023/03/31 00:25:40;;;;;;;;;14.80;14.60;;;;;15.35;52.64;97984.56;6085544;28;96473;-62
2023/03/31 00:28:45;;;;;;;;;19.00;18.00;;;;;14.96;53.24;97919.19;6087772;28;96922;-61
2023/03/31 00:31:48;;;;;;;;;15.25;14.50;;;;;15.26;53.43;97978.06;6093283;28;97617;-62
2023/03/31 00:34:52;;;;;;;;;19.20;17.40;;;;;15.31;53.32;97975.34;6072384;28;96936;-62
2023/03/31 00:37:56;;;;;;;;;18.50;16.75;;;;;15.27;53.99;97966.13;6093536;28;96431;-62
2023/03/31 00:41:00;;;;;;;;;17.50;16.00;;;;;15.31;53.91;97973.44;6090689;28;96384;-62
2023/03/31 00:44:12;;;;;;;;;18.00;16.00;;;;;15.32;54.07;97979.69;6080686;28;98393;-62
2023/03/31 00:47:19;;;;;;;;;19.00;18.00;;;;;15.30;54.40;97979.16;6076769;28;96338;-62
2023/03/31 00:50:27;;;;;;;;;16.00;15.00;;;;;15.30;54.42;97971.81;6076583;28;96929;-61
2023/03/31 00:53:33;;;;;;;;;19.00;17.00;;;;;15.35;54.10;97965.56;6074303;28;97190;-62
2023/03/31 00:56:39;;;;;;;;;17.33;15.33;;;;;15.40;54.30;97977.22;6072354;28;96540;-62
2023/03/31 00:59:49;;;;;;;;;16.00;14.20;;;;;15.38;53.97;97970.47;6080530;28;96501;-61
2023/03/31 01:02:57;;;;;;;;;18.00;15.00;;;;;15.32;54.44;97971.56;6096719;28;96299;-61
2023/03/31 01:06:04;;;;;;;;;19.60;18.00;;;;;15.30;54.28;97969.09;6098012;28;96306;-61
2023/03/31 01:09:08;;;;;;;;;19.00;16.00;;;;;15.27;54.09;97956.09;6098185;28;96241;-62
2023/03/31 01:12:12;;;;;;;;;17.60;16.00;;;;;15.34;54.06;97978.34;6096302;28;96458;-62
2023/03/31 01:15:16;;;;;;;;;18.40;16.40;;;;;15.34;53.98;97969.38;6102267;28;96829;-62
2023/03/31 01:18:20;;;;;;;;;15.60;13.00;;;;;15.36;53.70;97962.59;6095402;28;96302;-62
2023/03/31 01:22:08;;;;;;;;;14.00;13.40;;;;;15.34;53.74;97972.94;6096203;28;96737;-62
2023/03/31 01:25:41;;;;;;;;;14.60;13.60;;;;;15.37;53.29;97968.84;5979823;28;97507;-62
2023/03/31 01:28:52;;;;;;;;;15.00;14.60;;;;;15.24;53.43;97966.69;6078564;28;98484;-61
2023/03/31 01:32:44;;;;;;;;;14.00;13.00;;;;;15.33;53.09;97967.75;6097018;28;96431;-61
2023/03/31 01:36:14;;;;;;;;;14.75;14.00;;;;;15.32;52.89;97964.22;6082447;28;96424;-62
2023/03/31 01:39:52;;;;;;;;;15.00;14.25;;;;;15.38;52.57;97963.13;6095933;28;96375;-62
2023/03/31 01:43:03;;;;;;;;;14.50;13.50;;;;;15.49;52.09;97962.00;6095378;28;96677;-62
2023/03/31 01:46:13;;;;;;;;;13.00;13.00;;;;;15.29;52.55;97966.69;6097112;28;96636;-62
2023/03/31 01:49:29;;;;;;;;;13.00;13.00;;;;;15.36;52.42;97962.59;6079421;28;96389;-62
2023/03/31 01:52:42;;;;;;;;;14.75;13.25;;;;;15.31;52.57;97969.91;6078491;28;96809;-62
2023/03/31 01:55:55;;;;;;;;;15.50;14.50;;;;;15.33;52.26;97967.75;6095994;28;96402;-61
2023/03/31 01:59:08;;;;;;;;;15.60;13.00;;;;;15.38;52.19;97971.28;6069265;28;96479;-61
2023/03/31 02:02:17;;;;;;;;;13.60;13.20;;;;;15.43;52.03;97973.16;6079849;28;96522;-61
2023/03/31 02:05:24;;;;;;;;;13.00;13.00;;;;;15.36;52.03;97978.88;6059697;28;98591;-62
2023/03/31 02:08:33;;;;;;;;;13.60;13.60;;;;;15.29;52.33;97981.06;6073039;28;96392;-62
2023/03/31 02:11:40;;;;;;;;;12.40;11.40;;;;;15.25;52.40;97976.47;6078165;28;96488;-61
2023/03/31 02:14:47;;;;;;;;;12.75;11.75;;;;;15.24;52.24;97972.94;6076765;28;96830;-62
2023/03/31 02:17:55;;;;;;;;;16.00;15.00;;;;;15.21;52.29;97968.03;6096913;28;96403;-62
2023/03/31 02:21:00;;;;;;;;;16.00;14.40;;;;;15.15;52.03;97958.25;6097535;28;96380;-62
2023/03/31 02:24:07;;;;;;;;;16.00;15.60;;;;;15.18;52.10;97968.59;6087634;28;96330;-61
2023/03/31 02:27:19;;;;;;;;;12.20;12.20;;;;;15.22;52.12;97958.00;6091673;28;98515;-62
2023/03/31 02:30:33;;;;;;;;;13.50;13.00;;;;;15.27;51.90;97964.22;6075096;28;96827;-62
2023/03/31 02:33:37;;;;;;;;;15.00;14.00;;;;;15.33;51.69;97967.75;6064062;28;96507;-62
2023/03/31 02:36:44;;;;;;;;;13.00;13.00;;;;;15.32;51.73;97968.84;6078510;28;98636;-62
2023/03/31 02:39:52;;;;;;;;;14.00;14.00;;;;;15.24;51.87;97974.84;6070121;28;97001;-62
2023/03/31 02:42:56;;;;;;;;;12.40;11.00;;;;;15.21;51.92;97973.47;6058821;28;96656;-62
2023/03/31 02:46:01;;;;;;;;;11.00;11.00;;;;;15.26;51.66;97970.75;6091195;28;96703;-62
2023/03/31 02:49:10;;;;;;;;;11.60;11.60;;;;;15.26;51.42;97968.03;6081010;28;96295;-62
2023/03/31 02:52:32;;;;;;;;;8.20;7.20;;;;;15.32;51.38;97968.84;6095177;28;96437;-61
2023/03/31 02:55:56;;;;;;;;;11.00;11.00;;;;;15.36;51.29;97968.00;6074073;28;96181;-62
2023/03/31 02:59:14;;;;;;;;;11.00;10.25;;;;;15.20;51.51;97963.69;6074208;28;96330;-62
2023/03/31 03:02:30;;;;;;;;;12.00;11.00;;;;;15.19;51.46;97964.81;6060632;28;97405;-62
2023/03/31 03:05:40;;;;;;;;;8.75;8.25;;;;;15.22;51.43;97958.81;6053237;28;99355;-61
2023/03/31 03:09:21;;;;;;;;;11.60;10.00;;;;;15.19;51.55;97959.38;6075901;28;96345;-61
2023/03/31 03:12:28;;;;;;;;;11.25;11.25;;;;;15.10;51.55;97959.09;6073798;28;96468;-62
2023/03/31 03:15:36;;;;;;;;;10.00;9.40;;;;;15.05;51.77;97964.53;6093625;28;96534;-62
2023/03/31 03:18:41;;;;;;;;;8.00;8.00;;;;;15.06;51.59;97957.19;6077209;28;96989;-62
2023/03/31 03:21:46;;;;;;;;;11.00;10.00;;;;;15.02;51.69;97964.25;6093167;28;96584;-61
2023/03/31 03:24:49;;;;;;;;;7.75;7.75;;;;;14.98;51.83;97965.91;6093751;28;96561;-62
2023/03/31 03:27:52;;;;;;;;;7.50;6.50;;;;;14.97;51.94;97967.78;6094527;28;96262;-61
2023/03/31 03:30:56;;;;;;;;;10.00;9.00;;;;;14.98;51.90;97960.47;6093726;28;96107;-62
2023/03/31 03:34:02;;;;;;;;;10.00;8.40;;;;;14.96;51.81;97966.16;6075798;28;98839;-61
2023/03/31 03:37:05;;;;;;;;;8.50;8.50;;;;;14.92;52.08;97965.06;6095300;28;96303;-62
2023/03/31 03:40:10;;;;;;;;;7.00;6.00;;;;;14.93;51.67;97963.19;6094208;28;96767;-62
2023/03/31 03:43:13;;;;;;;;;8.60;8.00;;;;;14.91;51.86;97959.91;6090754;28;96658;-61
2023/03/31 03:46:17;;;;;;;;;10.00;9.40;;;;;14.90;51.59;97961.84;6088771;28;96378;-61
2023/03/31 03:49:22;;;;;;;;;8.00;8.00;;;;;14.86;51.80;97951.78;6086478;28;96160;-62
2023/03/31 03:52:25;;;;;;;;;6.50;6.50;;;;;14.72;51.73;97936.03;6094576;28;96977;-62
2023/03/31 03:55:28;;;;;;;;;7.00;6.00;;;;;14.83;51.87;97946.91;6090991;28;96818;-62
2023/03/31 03:58:31;;;;;;;;;5.40;5.40;;;;;14.86;51.74;97946.34;6085147;28;98442;-61
2023/03/31 04:01:36;;;;;;;;;7.00;6.00;;;;;14.86;51.73;97936.31;6076508;28;96604;-61
2023/03/31 04:04:40;;;;;;;;;7.40;7.00;;;;;14.84;51.60;97940.41;6089516;28;96292;-61
2023/03/31 04:07:44;;;;;;;;;7.00;7.00;;;;;14.86;51.73;97935.50;6086183;28;96407;-62
2023/03/31 04:10:48;;;;;;;;;6.00;6.00;;;;;14.88;51.59;97928.72;6092369;28;96250;-61
2023/03/31 04:13:52;;;;;;;;;6.00;6.00;;;;;14.90;51.64;97933.88;6085718;28;96693;-61
2023/03/31 04:16:57;;;;;;;;;8.25;8.00;;;;;14.83;51.64;97922.47;6089553;28;96545;-62
2023/03/31 04:20:06;;;;;;;;;6.00;5.20;;;;;14.97;51.34;97929.78;6093179;28;96457;-62
2023/03/31 04:23:09;;;;;;;;;9.00;9.00;;;;;14.88;51.22;97906.19;6091185;28;96699;-61
2023/03/31 04:26:13;;;;;;;;;6.00;6.00;;;;;14.92;51.12;97904.56;6090103;28;96804;-61
2023/03/31 04:29:19;;;;;;;;;6.00;5.40;;;;;15.02;51.30;97918.13;6075869;28;96796;-62
2023/03/31 04:32:23;;;;;;;;;7.00;7.00;;;;;14.96;51.43;97911.88;6075430;28;97837;-62
2023/03/31 04:35:41;;;;;;;;;6.00;5.40;;;;;14.94;51.01;97905.94;6083985;28;96335;-62
2023/03/31 04:38:46;;;;;;;;;4.00;4.00;;;;;14.92;51.36;97907.28;6086713;28;96492;-62
2023/03/31 04:41:49;;;;;;;;;5.00;5.00;;;;;14.90;51.31;97902.13;6046851;28;97516;-62
2023/03/31 04:44:53;;;;;;;;;7.75;6.75;;;;;14.96;51.32;97905.63;6091449;28;96381;-62
2023/03/31 04:47:56;;;;;;;;;7.00;6.25;;;;;14.97;51.09;97908.09;6092564;28;96383;-62
2023/03/31 04:51:01;;;;;;;;;8.00;7.00;;;;;14.96;51.28;97906.44;6091524;28;97345;-62
2023/03/31 04:54:04;;;;;;;;;7.80;7.80;;;;;15.03;51.11;97914.31;6092061;28;96436;-61
2023/03/31 04:57:08;;;;;;;;;8.00;7.40;;;;;15.03;51.06;97911.59;6075508;28;96704;-62
2023/03/31 05:00:13;;;;;;;;;8.00;7.50;;;;;15.10;50.97;97909.44;6091974;28;96764;-62
2023/03/31 05:03:16;;;;;;;;;8.00;8.00;;;;;15.20;50.72;97908.59;6073000;28;96909;-62
2023/03/31 05:06:21;;;;;;;;;5.00;5.00;;;;;15.23;50.66;97913.47;6093182;28;96274;-61
2023/03/31 05:09:24;;;;;;;;;7.60;7.60;;;;;15.33;50.42;97905.31;6085066;28;96309;-62
2023/03/31 05:12:27;;;;;;;;;6.40;6.00;;;;;15.41;50.26;97904.72;6074964;28;97653;-63
2023/03/31 05:15:30;;;;;;;;;6.50;5.50;;;;;15.47;49.96;97906.34;6087549;28;96389;-62
2023/03/31 05:18:37;;;;;;;;;8.00;7.20;;;;;15.57;49.79;97896.28;6072773;28;96316;-64
2023/03/31 05:21:41;;;;;;;;;7.20;6.00;;;;;15.69;49.53;97893.22;6071662;28;96529;-64
2023/03/31 05:24:44;;;;;;;;;7.00;7.00;;;;;15.75;49.25;97894.03;6072008;28;98406;-64
2023/03/31 05:27:49;;;;;;;;;8.00;7.80;;;;;15.76;49.34;97892.94;6088804;28;96293;-64
2023/03/31 05:30:53;;;;;;;;;8.25;8.00;;;;;15.84;48.91;97895.88;6087174;28;96379;-65
2023/03/31 05:33:56;;;;;;;;;7.00;7.00;;;;;15.93;49.03;97887.97;6085110;28;97974;-64
2023/03/31 05:37:01;;;;;;;;;9.25;7.00;;;;;15.92;48.99;97891.78;6089280;28;96491;-64
2023/03/31 05:40:07;;;;;;;;;6.80;6.80;;;;;15.99;48.72;97890.38;6071041;28;96779;-64
2023/03/31 05:43:10;;;;;;;;;10.00;9.00;;;;;16.04;48.75;97886.78;6071224;28;96490;-64
2023/03/31 05:46:13;;;;;;;;;9.00;8.75;;;;;16.04;48.54;97874.03;6078160;28;96464;-64
2023/03/31 05:49:17;;;;;;;;;8.40;7.40;;;;;16.06;48.47;97876.47;6092800;28;96453;-64
2023/03/31 05:52:22;;;;;;;;;9.00;8.00;;;;;16.13;48.25;97876.13;6092653;28;96215;-65
2023/03/31 05:55:25;;;;;;;;;9.00;9.00;;;;;16.33;48.06;97871.38;6093164;28;96907;-64
2023/03/31 05:58:28;;;;;;;;;9.00;8.00;;;;;16.52;47.61;97873.44;6075697;28;96292;-65
2023/03/31 06:01:33;;;;;;;;;11.60;10.00;;;;;16.70;47.10;97876.28;6092657;28;96286;-65
2023/03/31 06:04:37;;;;;;;;;10.00;9.00;;;;;16.74;46.73;97871.09;6092485;28;97653;-64
2023/03/31 06:07:42;;;;;;;;;9.00;8.75;;;;;16.88;46.42;97866.59;6092503;28;96344;-64
2023/03/31 06:10:45;;;;;;;;;8.00;7.00;;;;;16.91;46.11;97865.22;6059309;28;98511;-65
2023/03/31 06:13:49;;;;;;;;;9.80;9.00;;;;;17.07;45.79;97867.50;6073689;28;96534;-64
2023/03/31 06:16:52;;;;;;;;;12.00;11.00;;;;;17.18;45.59;97860.03;6074944;28;98734;-65
2023/03/31 06:19:59;;;;;;;;;10.75;9.25;;;;;17.37;45.18;97874.53;6092146;28;96505;-64
2023/03/31 06:23:04;;;;;;;;;9.40;9.40;;;;;17.50;44.83;97862.91;6058530;28;96409;-65
2023/03/31 06:26:08;;;;;;;;;10.00;9.40;;;;;17.66;44.47;97869.03;6075170;28;96921;-65
2023/03/31 06:29:11;;;;;;;;;12.00;10.00;;;;;17.87;43.89;97872.28;6092026;28;96372;-64
2023/03/31 06:32:15;;;;;;;;;8.40;8.00;;;;;18.13;43.35;97865.41;6083096;28;96517;-65
2023/03/31 06:35:18;;;;;;;;;11.40;9.60;;;;;18.33;42.84;97865.06;6088199;28;96853;-64
2023/03/31 06:38:23;;;;;;;;;9.80;9.00;;;;;18.49;41.94;97869.19;6084106;28;97567;-64
2023/03/31 06:41:26;;;;;;;;;10.00;9.50;;;;;18.53;42.34;97867.50;6091531;28;96359;-64
2023/03/31 06:44:30;;;;;;;;;9.40;9.00;;;;;18.70;41.83;97861.50;6080783;28;96664;-64
2023/03/31 06:47:33;;;;;;;;;8.00;8.00;;;;;18.78;41.40;97858.09;6077633;28;96480;-65
2023/03/31 06:50:38;;;;;;;;;7.00;7.00;;;;;18.84;41.35;97865.09;6092364;28;96551;-64
2023/03/31 06:53:42;;;;;;;;;8.00;7.00;;;;;18.79;41.07;97862.44;6091366;28;96242;-64
2023/03/31 06:56:46;;;;;;;;;9.00;8.20;;;;;18.86;40.86;97862.84;6091096;28;96503;-64
2023/03/31 06:59:49;;;;;;;;;7.20;6.00;;;;;18.93;40.58;97874.19;6074691;28;96507;-64
2023/03/31 07:02:53;;;;;;;;;9.00;8.60;;;;;18.97;40.35;97867.03;6091290;28;96314;-65
2023/03/31 07:05:57;;;;;;;;;9.80;8.40;;;;;19.14;40.21;97865.63;6091438;28;96339;-65
2023/03/31 07:09:03;;;;;;;;;6.00;6.00;;;;;19.16;40.20;97861.47;6091254;28;96269;-64
2023/03/31 07:12:06;;;;;;;;;6.00;6.00;;;;;19.30;39.72;97858.78;6082501;28;96368;-64
2023/03/31 07:15:10;;;;;;;;;6.00;6.00;;;;;19.40;39.39;97864.06;6072483;28;96447;-65
2023/03/31 07:18:14;;;;;;;;;6.80;6.00;;;;;19.55;39.17;97858.28;6090042;28;96631;-65
2023/03/31 07:21:18;;;;;;;;;5.00;5.00;;;;;19.93;39.05;97867.06;6090333;28;96278;-64
2023/03/31 07:24:23;;;;;;;;;6.25;6.25;;;;;20.28;38.07;97851.78;6090776;28;96835;-65
2023/03/31 07:27:26;;;;;;;;;7.00;7.00;;;;;20.36;37.15;97845.59;6074613;28;96922;-65
2023/03/31 07:30:29;;;;;;;;;6.40;6.00;;;;;20.48;36.63;97845.81;6090077;28;96525;-65
2023/03/31 07:33:33;;;;;;;;;5.00;5.00;;;;;20.70;36.20;97840.34;6089978;28;96753;-64
2023/03/31 07:36:36;;;;;;;;;4.20;4.20;;;;;20.90;35.95;97836.28;6090316;28;96551;-64
2023/03/31 07:39:41;;;;;;;;;4.20;3.80;;;;;21.19;35.69;97841.28;6090564;28;96593;-65
2023/03/31 07:42:45;;;;;;;;;6.00;5.00;;;;;21.36;35.05;97841.34;6090656;28;96319;-64
2023/03/31 07:45:51;;;;;;;;;4.00;4.00;;;;;21.64;34.64;97828.22;6074037;28;98396;-64
2023/03/31 07:48:57;;;;;;;;;5.00;4.60;;;;;22.09;34.01;97830.75;6091150;28;96487;-65
2023/03/31 07:52:00;;;;;;;;;7.00;6.00;;;;;22.53;33.25;97835.09;6090382;28;96563;-65
2023/03/31 07:55:06;;;;;;;;;4.00;4.00;;;;;22.71;32.44;97837.53;6091046;28;96334;-65
2023/03/31 07:58:10;;;;;;;;;5.00;5.00;;;;;22.82;32.34;97829.75;6090860;28;96476;-65
2023/03/31 08:01:16;;;;;;;;;4.00;4.00;;;;;23.01;31.96;97821.94;6090688;28;96496;-65
2023/03/31 08:04:20;;;;;;;;;6.00;5.00;;;;;23.44;32.03;97809.94;6082559;28;96165;-65
2023/03/31 08:07:24;;;;;;;;;6.00;6.00;;;;;23.44;31.77;97815.44;6074803;28;96302;-65
2023/03/31 08:10:29;;;;;;;;;6.00;5.40;;;;;23.85;31.02;97821.06;6073687;28;97136;-65
2023/03/31 08:13:32;;;;;;;;;4.00;4.00;;;;;24.33;30.92;97815.06;6089632;28;97500;-65
2023/03/31 08:16:36;;;;;;;;;4.60;3.60;;;;;24.85;29.52;97809.06;6093869;28;96739;-64
2023/03/31 08:19:40;;;;;;;;;5.75;4.25;;;;;25.32;29.18;97804.78;6108336;28;96274;-63
2023/03/31 08:22:43;;;;;;;;;4.00;4.00;;;;;25.47;28.05;97795.00;6097607;28;96376;-64
2023/03/31 08:25:48;;;;;;;;;4.00;4.00;;;;;25.36;28.11;97800.19;6091516;28;97021;-64
2023/03/31 08:28:52;;;;;;;;;7.00;6.00;;;;;25.31;27.36;97791.34;6108310;28;96293;-63
2023/03/31 08:31:55;;;;;;;;;3.00;3.00;;;;;25.26;28.10;97783.31;6108100;28;96325;-65
2023/03/31 08:34:59;;;;;;;;;2.20;2.00;;;;;25.52;27.42;97792.03;6076228;28;97307;-63
2023/03/31 08:38:03;;;;;;;;;3.40;3.40;;;;;25.68;26.98;97784.69;6092000;28;96318;-61
2023/03/31 08:41:33;;;;;;;;;3.25;3.00;;;;;26.05;26.83;97788.16;6108610;28;96941;-64
2023/03/31 08:44:43;;;;;;;;;3.00;2.40;;;;;26.21;25.85;97777.19;6094597;28;96910;-64
2023/03/31 08:47:50;;;;;;;;;2.00;2.00;;;;;26.19;25.90;97762.94;6096507;28;96288;-64
2023/03/31 08:51:00;;;;;;;;;4.40;4.40;;;;;26.48;26.41;97759.88;6109144;28;96482;-64
2023/03/31 08:54:06;;;;;;;;;2.00;2.00;;;;;26.86;25.60;97748.25;6108692;28;96342;-64
2023/03/31 08:57:19;;;;;;;;;2.40;2.40;;;;;26.70;25.18;97762.03;6108297;28;96297;-64
2023/03/31 09:00:22;;;;;;;;;3.00;3.00;;;;;26.61;25.33;97753.09;6088274;28;98548;-64
2023/03/31 09:03:35;;;;;;;;;4.00;4.00;;;;;26.23;25.56;97741.78;6088610;28;96333;-64
2023/03/31 09:06:43;;;;;;;;;4.50;4.00;;;;;26.17;25.60;97743.94;6083817;28;96852;-64
2023/03/31 09:09:55;;;;;;;;;4.00;3.00;;;;;26.22;25.84;97740.16;6092934;28;96955;-64
2023/03/31 09:13:10;;;;;;;;;4.00;4.00;;;;;26.44;25.73;97727.75;6082997;28;96364;-63
2023/03/31 09:16:15;;;;;;;;;2.80;2.80;;;;;26.65;25.75;97722.78;6084244;28;96230;-64
2023/03/31 09:19:28;;;;;;;;;2.40;2.00;;;;;27.05;25.40;97728.19;6103838;28;96308;-64
2023/03/31 09:22:35;;;;;;;;;3.00;3.00;;;;;27.11;25.39;97719.28;6106750;28;96831;-64
2023/03/31 09:25:41;;;;;;;;;4.00;3.00;;;;;27.17;24.67;97717.81;6106062;28;96241;-64
2023/03/31 09:28:47;;;;;;;;;3.00;2.20;;;;;26.74;24.09;97709.59;6118988;28;96211;-63
2023/03/31 09:31:50;;;;;;;;;3.00;3.00;;;;;26.18;25.49;97700.56;6125644;28;96354;-63
2023/03/31 09:34:59;;;;;;;;;2.00;2.00;;;;;26.04;25.72;97703.72;6111821;28;96313;-63
2023/03/31 09:38:03;;;;;;;;;2.80;2.80;;;;;25.68;26.11;97703.84;6091554;28;96522;-64
2023/03/31 09:41:07;;;;;;;;;4.40;4.00;;;;;24.83;26.71;97681.78;6096889;28;96700;-65
2023/03/31 09:44:23;;;;;;;;;3.00;2.25;;;;;25.34;26.76;97683.06;6111331;28;96391;-64
2023/03/31 09:47:33;;;;;;;;;2.00;2.00;;;;;25.15;26.14;97672.63;6075619;28;98555;-64
2023/03/31 09:50:45;;;;;;;;;2.00;2.00;;;;;25.72;26.49;97660.56;6115881;28;96274;-64
2023/03/31 09:53:53;;;;;;;;;5.00;5.00;;;;;26.16;25.96;97655.91;6116306;28;96603;-64
2023/03/31 09:56:56;;;;;;;;;3.00;3.00;;;;;26.10;26.34;97651.78;6112350;28;96342;-63
2023/03/31 10:00:15;;;;;;;;;1.20;1.20;;;;;25.79;25.88;97650.56;6089907;28;96284;-65
2023/03/31 10:03:18;;;;;;;;;3.50;3.00;;;;;25.79;25.49;97647.78;6109172;28;96257;-65
2023/03/31 10:06:24;;;;;;;;;2.60;2.60;;;;;25.70;25.62;97655.41;6113561;28;96944;-63
2023/03/31 10:09:30;;;;;;;;;1.40;1.00;;;;;25.78;26.09;97645.38;6109592;28;96462;-64
2023/03/31 10:12:35;;;;;;;;;2.00;2.00;;;;;26.43;24.87;97632.19;6106167;28;96181;-62
2023/03/31 10:15:40;;;;;;;;;2.00;2.00;;;;;27.02;24.38;97632.91;6111904;28;96436;-61
2023/03/31 10:18:44;;;;;;;;;2.00;2.00;;;;;27.79;23.62;97623.94;6079448;28;96815;-64
2023/03/31 10:21:55;;;;;;;;;2.00;2.00;;;;;28.33;22.93;97623.81;6111725;28;96237;-63
2023/03/31 10:25:10;;;;;;;;;3.00;2.00;;;;;28.22;22.74;97628.34;6111921;28;96185;-64
2023/03/31 10:28:17;;;;;;;;;3.00;2.60;;;;;28.25;23.37;97624.84;6092706;28;96378;-64
2023/03/31 10:31:25;;;;;;;;;2.00;2.00;;;;;27.37;23.80;97616.28;6107846;28;96870;-62
2023/03/31 10:34:31;;;;;;;;;3.25;3.25;;;;;26.45;24.63;97613.28;6106625;28;96437;-62
2023/03/31 10:37:36;;;;;;;;;2.00;1.20;;;;;26.11;25.01;97603.69;6107435;28;96261;-62
2023/03/31 10:40:44;;;;;;;;;5.00;4.60;;;;;25.89;25.36;97588.50;6091279;28;96244;-62
2023/03/31 10:43:51;;;;;;;;;2.00;2.00;;;;;25.78;25.72;97603.97;6103655;28;97621;-64
2023/03/31 10:46:55;;;;;;;;;3.00;3.00;;;;;25.58;26.03;97594.72;6083818;28;96392;-65
2023/03/31 10:49:59;;;;;;;;;3.00;3.00;;;;;25.20;26.34;97589.66;6105157;28;96567;-63
2023/03/31 10:53:04;;;;;;;;;3.00;3.00;;;;;24.63;26.77;97581.50;6088222;28;99358;-64
2023/03/31 10:56:40;;;;;;;;;2.40;2.40;;;;;24.73;27.04;97588.53;6107707;28;97442;-64
2023/03/31 11:00:04;;;;;;;;;2.80;1.80;;;;;25.56;25.80;97582.44;6106110;28;96236;-63
2023/03/31 11:03:41;;;;;;;;;2.00;2.00;;;;;26.22;25.06;97579.94;6104993;28;97418;-65
2023/03/31 11:06:55;;;;;;;;;3.00;2.00;;;;;26.61;24.74;97569.84;6096776;28;97131;-64
2023/03/31 11:10:12;;;;;;;;;2.00;2.00;;;;;27.40;24.26;97556.66;6103276;28;97375;-63
2023/03/31 11:13:25;;;;;;;;;3.00;3.00;;;;;27.42;23.67;97555.13;6102661;28;96786;-64
2023/03/31 11:16:37;;;;;;;;;4.25;4.00;;;;;26.69;24.04;97553.06;6101117;28;96265;-64
2023/03/31 11:19:51;;;;;;;;;4.60;4.00;;;;;26.07;25.27;97555.81;6104737;28;96518;-65
2023/03/31 11:23:03;;;;;;;;;3.00;3.00;;;;;25.37;26.08;97556.25;6087696;28;98547;-64
2023/03/31 11:26:14;;;;;;;;;5.80;4.80;;;;;25.06;26.47;97547.84;6101881;28;96355;-65
2023/03/31 11:29:32;;;;;;;;;5.00;5.00;;;;;24.58;26.95;97548.72;6095105;28;98772;-64
2023/03/31 11:32:50;;;;;;;;;6.20;5.80;;;;;24.14;27.54;97542.13;6107150;28;96456;-65
2023/03/31 11:36:07;;;;;;;;;7.00;6.25;;;;;23.67;28.28;97545.22;6106310;28;96231;-65
2023/03/31 11:39:28;;;;;;;;;4.00;4.00;;;;;23.36;28.92;97538.53;6101454;28;96887;-64
2023/03/31 11:42:37;;;;;;;;;4.20;4.20;;;;;23.02;29.38;97534.13;6103941;28;96742;-66
2023/03/31 11:45:49;;;;;;;;;4.00;4.00;;;;;22.64;29.75;97532.25;6104277;28;96309;-64
2023/03/31 11:48:58;;;;;;;;;5.00;4.00;;;;;22.33;29.78;97510.63;6099917;28;96729;-64
2023/03/31 11:52:06;;;;;;;;;4.40;4.40;;;;;22.50;30.34;97525.38;6103959;28;96741;-64
2023/03/31 11:55:16;;;;;;;;;4.00;4.00;;;;;22.45;29.95;97505.22;6101012;28;96407;-64
2023/03/31 11:58:27;;;;;;;;;6.00;5.00;;;;;22.43;30.20;97523.19;6086918;28;96726;-64
2023/03/31 12:01:44;;;;;;;;;5.40;5.00;;;;;22.71;30.06;97523.53;6105263;28;96323;-64
2023/03/31 12:04:52;;;;;;;;;8.00;7.00;;;;;23.05;29.53;97509.53;6086481;28;96517;-65
2023/03/31 12:08:02;;;;;;;;;5.00;4.80;;;;;23.69;29.06;97501.66;6102957;28;97203;-64
2023/03/31 12:11:16;;;;;;;;;5.00;5.00;;;;;24.10;27.93;97502.63;6076837;28;96501;-64
2023/03/31 12:14:27;;;;;;;;;4.60;4.00;;;;;24.21;27.80;97503.81;6075158;28;98318;-64
2023/03/31 12:17:32;;;;;;;;;4.00;4.00;;;;;24.51;27.95;97496.94;6098849;28;97287;-63
2023/03/31 12:20:40;;;;;;;;;5.00;5.00;;;;;24.26;27.71;97480.75;6103091;28;96323;-64
2023/03/31 12:23:50;;;;;;;;;5.00;5.00;;;;;24.13;28.07;97463.41;6101277;28;96380;-63
2023/03/31 12:27:04;;;;;;;;;4.50;4.50;;;;;24.52;27.74;97490.28;6063584;28;98332;-63
2023/03/31 12:30:13;;;;;;;;;4.60;4.20;;;;;24.97;26.93;97490.06;6089838;28;96237;-63
2023/03/31 12:33:22;;;;;;;;;5.00;5.00;;;;;24.90;27.47;97467.81;6099286;28;97056;-64
2023/03/31 12:36:41;;;;;;;;;4.60;3.60;;;;;24.70;27.06;97460.50;6098745;28;98306;-64
2023/03/31 12:39:59;;;;;;;;;4.00;3.75;;;;;24.30;27.83;97467.91;6100904;28;96277;-64
2023/03/31 12:43:36;;;;;;;;;5.00;5.00;;;;;23.96;28.72;97452.59;6086704;28;96547;-65
2023/03/31 12:46:55;;;;;;;;;6.00;4.00;;;;;24.26;28.37;97447.69;6087374;28;96869;-65
2023/03/31 12:50:16;;;;;;;;;3.00;2.00;;;;;24.03;28.44;97439.09;6089305;28;97005;-65
2023/03/31 12:53:31;;;;;;;;;4.00;4.00;;;;;24.28;28.42;97437.97;6090513;28;96663;-65
2023/03/31 12:57:14;;;;;;;;;4.00;4.00;;;;;24.15;27.30;97426.09;6089135;28;96949;-65
2023/03/31 13:00:26;;;;;;;;;3.00;3.00;;;;;24.06;27.63;97436.44;6084673;28;96488;-65
2023/03/31 13:03:40;;;;;;;;;2.00;2.00;;;;;23.96;27.89;97414.06;6075316;28;98581;-65
2023/03/31 13:06:52;;;;;;;;;5.00;5.00;;;;;23.59;28.16;97414.06;6086979;28;96339;-64
2023/03/31 13:09:57;;;;;;;;;4.00;3.20;;;;;23.41;28.36;97409.06;6093323;28;96714;-65
2023/03/31 13:13:05;;;;;;;;;5.00;5.00;;;;;23.17;28.54;97405.09;6092814;28;96405;-65
2023/03/31 13:16:08;;;;;;;;;4.00;3.00;;;;;22.81;29.46;97407.72;6084744;28;96636;-65
2023/03/31 13:19:24;;;;;;;;;1.75;1.00;;;;;22.77;29.60;97395.81;6092709;28;97020;-65
2023/03/31 13:22:33;;;;;;;;;5.00;5.00;;;;;22.62;29.30;97379.91;6092909;28;96274;-65
2023/03/31 13:25:42;;;;;;;;;4.40;4.00;;;;;22.49;29.63;97384.53;6072928;28;96581;-65
2023/03/31 13:29:07;;;;;;;;;3.00;3.00;;;;;22.37;29.88;97384.47;6075518;28;98549;-65
2023/03/31 13:32:21;;;;;;;;;3.40;2.60;;;;;22.33;30.11;97381.56;6093831;28;96671;-65
2023/03/31 13:35:30;;;;;;;;;4.60;4.00;;;;;22.31;30.02;97370.13;6065642;28;96721;-64
2023/03/31 13:38:50;;;;;;;;;5.00;5.00;;;;;22.33;30.56;97369.81;6089433;28;96332;-64
2023/03/31 13:42:06;;;;;;;;;5.00;4.00;;;;;22.07;30.93;97342.53;6083015;28;97105;-64
2023/03/31 13:45:38;;;;;;;;;5.00;5.00;;;;;22.01;30.71;97338.38;6093097;28;96263;-65
2023/03/31 13:48:56;;;;;;;;;3.00;3.00;;;;;21.93;31.36;97331.81;6086738;28;96402;-65
2023/03/31 13:52:02;;;;;;;;;3.25;3.00;;;;;21.67;31.49;97317.44;6087253;28;96676;-64
2023/03/31 13:55:19;;;;;;;;;4.00;4.00;;;;;21.57;31.50;97331.50;6091336;28;96643;-64
2023/03/31 13:58:49;;;;;;;;;4.00;3.00;;;;;21.52;31.49;97315.25;6061945;28;96712;-64
2023/03/31 14:02:20;;;;;;;;;5.00;5.00;;;;;21.41;31.34;97317.56;6042173;28;96670;-64
2023/03/31 14:05:30;;;;;;;;;3.50;3.50;;;;;21.20;31.00;97315.88;6088539;28;96966;-64
2023/03/31 14:08:46;;;;;;;;;3.20;3.20;;;;;21.13;31.76;97321.84;6067465;28;96643;-65
2023/03/31 14:11:50;;;;;;;;;3.60;3.00;;;;;21.31;32.47;97319.84;6063246;28;98548;-64
2023/03/31 14:14:54;;;;;;;;;5.00;4.00;;;;;21.45;32.85;97307.53;6084027;28;96646;-64
2023/03/31 14:17:59;;;;;;;;;2.00;2.00;;;;;21.50;31.83;97317.53;6082013;28;96860;-65
2023/03/31 14:21:16;;;;;;;;;4.00;3.00;;;;;21.49;31.23;97307.69;6080035;28;98377;-64
2023/03/31 14:24:27;;;;;;;;;2.60;2.60;;;;;21.56;30.42;97297.78;6105614;28;96485;-64
2023/03/31 14:27:47;;;;;;;;;3.00;3.00;;;;;21.58;30.86;97314.75;6077644;28;98445;-64
2023/03/31 14:31:03;;;;;;;;;2.00;2.00;;;;;21.24;29.21;97303.94;6101908;28;97631;-65
2023/03/31 14:34:26;;;;;;;;;1.80;1.80;;;;;20.80;29.61;97315.34;6083279;28;96878;-64
2023/03/31 14:37:29;;;;;;;;;3.25;3.00;;;;;20.54;30.32;97307.16;6097165;28;96792;-65
2023/03/31 14:40:33;;;;;;;;;3.00;2.60;;;;;20.26;30.64;97303.94;6085181;28;97627;-64
2023/03/31 14:43:46;;;;;;;;;2.50;2.50;;;;;19.98;31.32;97308.94;6094709;28;96743;-64